Time,TemperatureF,DewpointF,PressureIn,WindDirection,WindDirectionDegrees,WindSpeedMPH,WindSpeedGustMPH,Humidity,HourlyPrecipIn,Conditions,Clouds,dailyrainin,SoftwareType,DateUTC
2013-05-04 00:01:00,43.0,8.0,-100.00,NE,52,5.0,8.0,23,-99.99,,,-99.99,,2013-05-04 07:01:00,
2013-05-04 00:11:00,43.0,8.0,-100.00,NE,52,5.0,8.0,23,-99.99,,,-99.99,,2013-05-04 07:11:00,
2013-05-04 00:21:00,38.0,7.0,-100.00,NE,51,3.0,7.0,27,-99.99,,,-99.99,,2013-05-04 07:21:00,
2013-05-04 00:32:00,41.0,8.0,-100.00,NE,56,5.0,9.0,25,-99.99,,,-99.99,,2013-05-04 07:32:00,
2013-05-04 00:41:00,41.0,8.0,-100.00,NE,56,5.0,9.0,25,-99.99,,,-99.99,,2013-05-04 07:41:00,
2013-05-04 00:52:00,37.0,7.0,-100.00,NNE,20,2.0,4.0,28,-99.99,,,-99.99,,2013-05-04 07:52:00,
2013-05-04 01:01:00,40.0,7.0,-100.00,NE,56,5.0,8.0,25,-99.99,,,-99.99,,2013-05-04 08:01:00,
2013-05-04 01:11:00,40.0,7.0,-100.00,NE,56,5.0,8.0,25,-99.99,,,-99.99,,2013-05-04 08:11:00,
2013-05-04 01:21:00,39.0,7.0,-100.00,NE,45,5.0,8.0,26,-99.99,,,-99.99,,2013-05-04 08:21:00,
2013-05-04 01:31:00,35.0,6.0,-100.00,NE,38,4.0,7.0,29,-99.99,,,-99.99,,2013-05-04 08:31:00,
2013-05-04 01:41:00,35.0,6.0,-100.00,NE,38,4.0,7.0,29,-99.99,,,-99.99,,2013-05-04 08:41:00,
2013-05-04 01:52:00,36.0,6.0,-100.00,NE,47,2.0,6.0,28,-99.99,,,-99.99,,2013-05-04 08:52:00,
2013-05-04 02:02:00,36.0,7.0,-100.00,NNE,23,3.0,5.0,28,-99.99,,,-99.99,,2013-05-04 09:02:00,
2013-05-04 02:11:00,36.0,7.0,-100.00,NNE,23,3.0,5.0,28,-99.99,,,-99.99,,2013-05-04 09:11:00,
2013-05-04 02:21:00,35.0,6.0,-100.00,NE,47,1.0,4.0,30,-99.99,,,-99.99,,2013-05-04 09:21:00,
2013-05-04 02:32:00,38.0,6.0,-100.00,ENE,66,3.0,7.0,26,-99.99,,,-99.99,,2013-05-04 09:32:00,
2013-05-04 02:42:00,38.0,6.0,-100.00,ENE,66,3.0,7.0,26,-99.99,,,-99.99,,2013-05-04 09:42:00,
2013-05-04 02:52:00,41.0,7.0,-100.00,East,80,6.0,10.0,24,-99.99,,,-99.99,,2013-05-04 09:52:00,
2013-05-04 03:02:00,40.0,6.0,-100.00,ENE,78,7.0,9.0,24,-99.99,,,-99.99,,2013-05-04 10:02:00,
2013-05-04 03:12:00,40.0,6.0,-100.00,ENE,78,7.0,9.0,24,-99.99,,,-99.99,,2013-05-04 10:12:00,
2013-05-04 03:22:00,38.0,7.0,-100.00,NE,54,6.0,10.0,27,-99.99,,,-99.99,,2013-05-04 10:22:00,
2013-05-04 03:33:00,39.0,7.0,-100.00,ENE,62,5.0,8.0,26,-99.99,,,-99.99,,2013-05-04 10:33:00,
2013-05-04 03:42:00,39.0,7.0,-100.00,ENE,62,5.0,8.0,26,-99.99,,,-99.99,,2013-05-04 10:42:00,
2013-05-04 03:52:00,38.0,8.0,-100.00,ENE,59,5.0,8.0,28,-99.99,,,-99.99,,2013-05-04 10:52:00,
2013-05-04 04:02:00,34.0,8.0,-100.00,NE,47,5.0,8.0,32,-99.99,,,-99.99,,2013-05-04 11:02:00,
2013-05-04 04:11:00,34.0,8.0,-100.00,NE,47,5.0,8.0,32,-99.99,,,-99.99,,2013-05-04 11:11:00,
2013-05-04 04:21:00,36.0,10.0,-100.00,NE,48,7.0,11.0,33,-99.99,,,-99.99,,2013-05-04 11:21:00,
2013-05-04 04:32:00,34.0,9.0,-100.00,NE,55,7.0,11.0,35,-99.99,,,-99.99,,2013-05-04 11:32:00,
2013-05-04 04:42:00,34.0,9.0,-100.00,NE,55,7.0,11.0,35,-99.99,,,-99.99,,2013-05-04 11:42:00,
2013-05-04 04:54:00,36.0,10.0,-100.00,NE,54,8.0,10.0,34,-99.99,,,-99.99,,2013-05-04 11:54:00,
2013-05-04 05:04:00,35.0,10.0,-100.00,NE,54,8.0,10.0,35,-99.99,,,-99.99,,2013-05-04 12:04:00,
2013-05-04 05:13:00,35.0,11.0,-100.00,NE,48,8.0,10.0,36,-99.99,,,-99.99,,2013-05-04 12:13:00,
2013-05-04 05:24:00,35.0,11.0,-100.00,NE,52,9.0,11.0,36,-99.99,,,-99.99,,2013-05-04 12:24:00,
2013-05-04 05:33:00,35.0,11.0,-100.00,NE,52,9.0,11.0,36,-99.99,,,-99.99,,2013-05-04 12:33:00,
2013-05-04 05:41:00,35.0,11.0,-100.00,NE,52,8.0,10.0,37,-99.99,,,-99.99,,2013-05-04 12:41:00,
2013-05-04 05:51:00,36.0,12.0,-100.00,ENE,62,8.0,10.0,37,-99.99,,,-99.99,,2013-05-04 12:51:00,
2013-05-04 06:01:00,35.0,12.0,-100.00,ENE,62,8.0,10.0,38,-99.99,,,-99.99,,2013-05-04 13:01:00,
2013-05-04 06:11:00,35.0,12.0,-100.00,ENE,64,8.0,11.0,38,-99.99,,,-99.99,,2013-05-04 13:11:00,
2013-05-04 06:21:00,34.0,12.0,-100.00,NE,54,8.0,10.0,39,-99.99,,,-99.99,,2013-05-04 13:21:00,
2013-05-04 06:32:00,35.0,13.0,-100.00,NE,47,8.0,10.0,40,-99.99,,,-99.99,,2013-05-04 13:32:00,
2013-05-04 06:41:00,36.0,13.0,-100.00,NE,52,8.0,10.0,38,-99.99,,,-99.99,,2013-05-04 13:41:00,
2013-05-04 06:52:00,37.0,13.0,-100.00,ENE,61,8.0,10.0,37,-99.99,,,-99.99,,2013-05-04 13:52:00,
2013-05-04 07:02:00,37.0,14.0,-100.00,NE,51,7.0,9.0,37,-99.99,,,-99.99,,2013-05-04 14:02:00,
2013-05-04 07:11:00,38.0,14.0,-100.00,NE,48,7.0,9.0,37,-99.99,,,-99.99,,2013-05-04 14:11:00,
2013-05-04 07:21:00,39.0,15.0,-100.00,ENE,59,6.0,9.0,37,-99.99,,,-99.99,,2013-05-04 14:21:00,
2013-05-04 07:32:00,39.0,15.0,-100.00,ENE,59,6.0,9.0,37,-99.99,,,-99.99,,2013-05-04 14:32:00,
2013-05-04 07:41:00,41.0,16.0,-100.00,ENE,61,7.0,10.0,35,-99.99,,,-99.99,,2013-05-04 14:41:00,
2013-05-04 07:51:00,42.0,15.0,-100.00,NE,48,5.0,8.0,34,-99.99,,,-99.99,,2013-05-04 14:51:00,
2013-05-04 08:02:00,43.0,15.0,-100.00,ENE,64,6.0,12.0,32,-99.99,,,-99.99,,2013-05-04 15:02:00,
2013-05-04 08:11:00,45.0,15.0,-100.00,ENE,61,6.0,9.0,30,-99.99,,,-99.99,,2013-05-04 15:11:00,
2013-05-04 08:21:00,45.0,16.0,-100.00,NE,49,6.0,10.0,31,-99.99,,,-99.99,,2013-05-04 15:21:00,
2013-05-04 08:33:00,45.0,15.0,-100.00,NE,45,10.0,13.0,30,-99.99,,,-99.99,,2013-05-04 15:33:00,
2013-05-04 08:43:00,45.0,15.0,-100.00,NE,40,10.0,14.0,30,-99.99,,,-99.99,,2013-05-04 15:43:00,
2013-05-04 08:52:00,46.0,17.0,-100.00,NE,41,9.0,13.0,31,-99.99,,,-99.99,,2013-05-04 15:52:00,
2013-05-04 09:03:00,45.0,16.0,-100.00,NE,40,9.0,13.0,30,-99.99,,,-99.99,,2013-05-04 16:03:00,
2013-05-04 09:12:00,46.0,16.0,-100.00,NE,34,10.0,15.0,30,-99.99,,,-99.99,,2013-05-04 16:12:00,
2013-05-04 09:22:00,46.0,15.0,-100.00,NNE,27,10.0,14.0,29,-99.99,,,-99.99,,2013-05-04 16:22:00,
2013-05-04 09:33:00,47.0,17.0,-100.00,ENE,68,7.0,12.0,30,-99.99,,,-99.99,,2013-05-04 16:33:00,
2013-05-04 09:42:00,49.0,18.0,-100.00,NE,47,6.0,13.0,29,-99.99,,,-99.99,,2013-05-04 16:42:00,
2013-05-04 09:52:00,48.0,16.0,-100.00,NE,56,7.0,14.0,28,-99.99,,,-99.99,,2013-05-04 16:52:00,
2013-05-04 10:02:00,49.0,16.0,-100.00,ENE,58,9.0,13.0,26,-99.99,,,-99.99,,2013-05-04 17:02:00,
2013-05-04 10:12:00,49.0,16.0,-100.00,NE,47,8.0,13.0,26,-99.99,,,-99.99,,2013-05-04 17:12:00,
2013-05-04 10:22:00,49.0,14.0,-100.00,NNE,20,7.0,15.0,24,-99.99,,,-99.99,,2013-05-04 17:22:00,
2013-05-04 10:32:00,50.0,14.0,-100.00,North,11,7.0,11.0,23,-99.99,,,-99.99,,2013-05-04 17:32:00,
2013-05-04 10:42:00,50.0,13.0,-100.00,NNE,17,7.0,13.0,22,-99.99,,,-99.99,,2013-05-04 17:42:00,
2013-05-04 10:52:00,51.0,14.0,-100.00,NNE,17,7.0,13.0,22,-99.99,,,-99.99,,2013-05-04 17:52:00,
2013-05-04 11:01:00,51.0,14.0,-100.00,North,10,7.0,13.0,23,-99.99,,,-99.99,,2013-05-04 18:01:00,
2013-05-04 11:12:00,52.0,15.0,-100.00,NNE,20,7.0,12.0,23,-99.99,,,-99.99,,2013-05-04 18:12:00,
2013-05-04 11:21:00,51.0,15.0,-100.00,NNE,21,7.0,12.0,23,-99.99,,,-99.99,,2013-05-04 18:21:00,
2013-05-04 11:32:00,51.0,13.0,-100.00,North,6,6.0,13.0,21,-99.99,,,-99.99,,2013-05-04 18:32:00,
2013-05-04 11:42:00,51.0,13.0,-100.00,North,6,6.0,13.0,21,-99.99,,,-99.99,,2013-05-04 18:42:00,
2013-05-04 11:52:00,53.0,15.0,-100.00,ENE,64,7.0,11.0,22,-99.99,,,-99.99,,2013-05-04 18:52:00,
2013-05-04 12:01:00,51.0,12.0,-100.00,NE,34,6.0,12.0,20,-99.99,,,-99.99,,2013-05-04 19:01:00,
2013-05-04 12:11:00,51.0,12.0,-100.00,NE,34,6.0,12.0,20,-99.99,,,-99.99,,2013-05-04 19:11:00,
2013-05-04 12:21:00,51.0,12.0,-100.00,NE,34,6.0,12.0,20,-99.99,,,-99.99,,2013-05-04 19:21:00,
2013-05-04 12:31:00,55.0,13.0,-100.00,NW,312,3.0,12.0,19,-99.99,,,-99.99,,2013-05-04 19:31:00,
2013-05-04 12:42:00,55.0,13.0,-100.00,NW,312,3.0,12.0,19,-99.99,,,-99.99,,2013-05-04 19:42:00,
2013-05-04 12:52:00,56.0,15.0,-100.00,ESE,103,5.0,12.0,20,-99.99,,,-99.99,,2013-05-04 19:52:00,
2013-05-04 13:02:00,56.0,13.0,-100.00,ENE,73,6.0,13.0,18,-99.99,,,-99.99,,2013-05-04 20:02:00,
2013-05-04 13:11:00,56.0,13.0,-100.00,ENE,73,6.0,13.0,18,-99.99,,,-99.99,,2013-05-04 20:11:00,
2013-05-04 13:21:00,54.0,14.0,-100.00,NE,52,5.0,14.0,20,-99.99,,,-99.99,,2013-05-04 20:21:00,
2013-05-04 13:31:00,54.0,15.0,-100.00,NNE,23,7.0,15.0,21,-99.99,,,-99.99,,2013-05-04 20:31:00,
2013-05-04 13:42:00,54.0,15.0,-100.00,NNE,23,7.0,15.0,21,-99.99,,,-99.99,,2013-05-04 20:42:00,
2013-05-04 13:51:00,55.0,16.0,-100.00,ENE,62,6.0,16.0,21,-99.99,,,-99.99,,2013-05-04 20:51:00,
2013-05-04 14:01:00,55.0,17.0,-100.00,ESE,116,11.0,20.0,22,-99.99,,,-99.99,,2013-05-04 21:01:00,
2013-05-04 14:11:00,55.0,17.0,-100.00,ESE,116,11.0,20.0,22,-99.99,,,-99.99,,2013-05-04 21:11:00,
2013-05-04 14:22:00,56.0,16.0,-100.00,ESE,120,8.0,29.0,20,-99.99,,,-99.99,,2013-05-04 21:22:00,
2013-05-04 14:33:00,56.0,15.0,-100.00,ESE,116,7.0,19.0,20,-99.99,,,-99.99,,2013-05-04 21:33:00,
2013-05-04 14:43:00,56.0,15.0,-100.00,ESE,116,7.0,19.0,20,-99.99,,,-99.99,,2013-05-04 21:43:00,
2013-05-04 14:52:00,57.0,16.0,-100.00,SE,126,7.0,17.0,20,-99.99,,,-99.99,,2013-05-04 21:52:00,
2013-05-04 15:02:00,56.0,18.0,-100.00,ESE,110,9.0,15.0,22,-99.99,,,-99.99,,2013-05-04 22:02:00,
2013-05-04 15:12:00,56.0,18.0,-100.00,ESE,110,9.0,15.0,22,-99.99,,,-99.99,,2013-05-04 22:12:00,
2013-05-04 15:22:00,55.0,18.0,-100.00,SE,128,7.0,13.0,23,-99.99,,,-99.99,,2013-05-04 22:22:00,
2013-05-04 15:32:00,54.0,13.0,-100.00,South,172,7.0,14.0,19,-99.99,,,-99.99,,2013-05-04 22:32:00,
2013-05-04 15:42:00,54.0,13.0,-100.00,South,172,7.0,14.0,19,-99.99,,,-99.99,,2013-05-04 22:42:00,
2013-05-04 15:52:00,55.0,14.0,-100.00,SSE,161,8.0,18.0,20,-99.99,,,-99.99,,2013-05-04 22:52:00,
2013-05-04 16:02:00,54.0,13.0,-100.00,South,185,9.0,18.0,19,-99.99,,,-99.99,,2013-05-04 23:02:00,
2013-05-04 16:11:00,54.0,13.0,-100.00,South,185,9.0,18.0,19,-99.99,,,-99.99,,2013-05-04 23:11:00,
2013-05-04 16:21:00,54.0,13.0,-100.00,South,185,9.0,18.0,19,-99.99,,,-99.99,,2013-05-04 23:21:00,
2013-05-04 16:32:00,53.0,15.0,-100.00,South,186,8.0,14.0,22,-99.99,,,-99.99,,2013-05-04 23:32:00,
2013-05-04 16:42:00,53.0,15.0,-100.00,South,186,8.0,14.0,22,-99.99,,,-99.99,,2013-05-04 23:42:00,
2013-05-04 16:52:00,53.0,15.0,-100.00,South,186,8.0,14.0,22,-99.99,,,-99.99,,2013-05-04 23:52:00,
2013-05-04 17:01:00,52.0,14.0,-100.00,South,191,8.0,16.0,21,-99.99,,,-99.99,,2013-05-05 00:01:00,
2013-05-04 17:11:00,52.0,14.0,-100.00,South,191,8.0,16.0,21,-99.99,,,-99.99,,2013-05-05 00:11:00,
2013-05-04 17:21:00,52.0,15.0,-100.00,South,178,11.0,22.0,23,-99.99,,,-99.99,,2013-05-05 00:21:00,
2013-05-04 17:31:00,52.0,15.0,-100.00,South,178,11.0,22.0,23,-99.99,,,-99.99,,2013-05-05 00:31:00,
2013-05-04 17:42:00,52.0,15.0,-100.00,South,178,11.0,22.0,23,-99.99,,,-99.99,,2013-05-05 00:42:00,
2013-05-04 17:51:00,51.0,19.0,-100.00,ESE,123,1.0,3.0,28,-99.99,,,-99.99,,2013-05-05 00:51:00,
2013-05-04 18:01:00,51.0,19.0,-100.00,ESE,123,1.0,3.0,28,-99.99,,,-99.99,,2013-05-05 01:01:00,
2013-05-04 18:11:00,51.0,19.0,-100.00,ESE,123,1.0,3.0,28,-99.99,,,-99.99,,2013-05-05 01:11:00,
2013-05-04 18:21:00,51.0,17.0,-100.00,SSE,157,9.0,19.0,25,-99.99,,,-99.99,,2013-05-05 01:21:00,
2013-05-04 18:32:00,50.0,18.0,-100.00,ESE,117,9.0,24.0,28,-99.99,,,-99.99,,2013-05-05 01:32:00,
2013-05-04 18:42:00,50.0,18.0,-100.00,ESE,117,9.0,24.0,28,-99.99,,,-99.99,,2013-05-05 01:42:00,
2013-05-04 18:52:00,50.0,18.0,-100.00,SE,134,4.0,9.0,28,-99.99,,,-99.99,,2013-05-05 01:52:00,
2013-05-04 19:02:00,50.0,17.0,-100.00,SE,130,6.0,12.0,26,-99.99,,,-99.99,,2013-05-05 02:02:00,
2013-05-04 19:11:00,51.0,15.0,-100.00,SE,130,6.0,12.0,24,-99.99,,,-99.99,,2013-05-05 02:11:00,
2013-05-04 19:21:00,50.0,17.0,-100.00,ESE,117,3.0,8.0,27,-99.99,,,-99.99,,2013-05-05 02:21:00,
2013-05-04 19:31:00,49.0,18.0,-100.00,SE,137,3.0,6.0,28,-99.99,,,-99.99,,2013-05-05 02:31:00,
2013-05-04 19:42:00,49.0,18.0,-100.00,ESE,121,4.0,6.0,29,-99.99,,,-99.99,,2013-05-05 02:42:00,
2013-05-04 19:52:00,48.0,18.0,-100.00,ESE,113,3.0,5.0,30,-99.99,,,-99.99,,2013-05-05 02:52:00,
2013-05-04 20:01:00,47.0,18.0,-100.00,SE,127,1.0,3.0,30,-99.99,,,-99.99,,2013-05-05 03:01:00,
2013-05-04 20:11:00,47.0,18.0,-100.00,ESE,123,0.0,3.0,30,-99.99,,,-99.99,,2013-05-05 03:11:00,
2013-05-04 20:21:00,46.0,18.0,-100.00,East,96,1.0,3.0,32,-99.99,,,-99.99,,2013-05-05 03:21:00,
2013-05-04 20:32:00,45.0,19.0,-100.00,NW,306,1.0,3.0,34,-99.99,,,-99.99,,2013-05-05 03:32:00,
2013-05-04 20:42:00,45.0,19.0,-100.00,NW,306,1.0,3.0,34,-99.99,,,-99.99,,2013-05-05 03:42:00,
2013-05-04 20:52:00,43.0,20.0,-100.00,NNE,25,0.0,2.0,38,-99.99,,,-99.99,,2013-05-05 03:52:00,
2013-05-04 21:02:00,42.0,20.0,-100.00,NNE,25,1.0,4.0,41,-99.99,,,-99.99,,2013-05-05 04:02:00,
2013-05-04 21:12:00,41.0,19.0,-100.00,NE,41,2.0,4.0,42,-99.99,,,-99.99,,2013-05-05 04:12:00,
2013-05-04 21:22:00,39.0,19.0,-100.00,NNW,330,2.0,4.0,43,-99.99,,,-99.99,,2013-05-05 04:22:00,
2013-05-04 21:32:00,41.0,19.0,-100.00,NW,311,0.0,3.0,41,-99.99,,,-99.99,,2013-05-05 04:32:00,
2013-05-04 21:43:00,38.0,18.0,-100.00,North,1,0.0,2.0,44,-99.99,,,-99.99,,2013-05-05 04:43:00,
2013-05-04 21:52:00,37.0,19.0,-100.00,North,8,1.0,3.0,46,-99.99,,,-99.99,,2013-05-05 04:52:00,
2013-05-04 22:02:00,39.0,18.0,-100.00,WNW,298,0.0,3.0,43,-99.99,,,-99.99,,2013-05-05 05:02:00,
2013-05-04 22:12:00,39.0,18.0,-100.00,NW,326,1.0,2.0,43,-99.99,,,-99.99,,2013-05-05 05:12:00,
2013-05-04 22:21:00,37.0,19.0,-100.00,NW,315,1.0,2.0,46,-99.99,,,-99.99,,2013-05-05 05:21:00,
2013-05-04 22:31:00,38.0,18.0,-100.00,NNE,24,0.0,0.0,44,-99.99,,,-99.99,,2013-05-05 05:31:00,
2013-05-04 22:42:00,37.0,19.0,-100.00,North,-999,0.0,0.0,47,-99.99,,,-99.99,,2013-05-05 05:42:00,
2013-05-04 22:51:00,36.0,19.0,-100.00,North,-999,0.0,0.0,50,-99.99,,,-99.99,,2013-05-05 05:51:00,
2013-05-04 23:01:00,36.0,19.0,-100.00,North,7,0.0,2.0,50,-99.99,,,-99.99,,2013-05-05 06:01:00,
2013-05-04 23:11:00,36.0,19.0,-100.00,North,352,2.0,4.0,50,-99.99,,,-99.99,,2013-05-05 06:11:00,
2013-05-04 23:21:00,37.0,19.0,-100.00,NNE,28,1.0,5.0,49,-99.99,,,-99.99,,2013-05-05 06:21:00,
2013-05-04 23:32:00,38.0,20.0,-100.00,NW,312,1.0,3.0,47,-99.99,,,-99.99,,2013-05-05 06:32:00,
2013-05-04 23:42:00,39.0,20.0,-100.00,WSW,250,0.0,3.0,46,-99.99,,,-99.99,,2013-05-05 06:42:00,
2013-05-04 23:52:00,46.0,19.0,-100.00,SE,138,4.0,21.0,33,-99.99,,,-99.99,,2013-05-05 06:52:00,